Lennoxville, Canada
Current Conditions -  °F | °C
As of 4:37 PM on Friday 24 Oct 2014 (Local Time) from CYSC Reporting Station
Overcast Overcast  
Wind Chill: 42°   Ceiling: 2200
Heat Index: 45°   Visibility: 9mi
Dew Point: 39°   Wind: 5mph
Humidity: 81%   Direction: 10°N
Pressure: 29.78"   Gusts: NA
Location:  45.37°N, 71.86°W
Report Text: CYSC 242037Z AUTO 01004KT 340V040 9SM OVC022 07/04 A2978 RMK SLP092
Loading
Personal Weather Stations






























Interactive Weather Map
Tropical Storm Tracking
New forecast layout! Learn more

10-Day Weather Forecast

Advertisements
Track Severe Weather on mobile